sensor_id;sensor_type;location;lat;lon;timestamp;P1;durP1;ratioP1;P2;durP2;ratioP2
52948;SDS011;38812;50.942;3.644;2022-11-15T04:33:26;20.95;;;7.13;;
52948;SDS011;38812;50.942;3.644;2022-11-15T04:35:53;14.48;;;4.32;;
52948;SDS011;38812;50.942;3.644;2022-11-15T04:38:37;12.95;;;3.72;;
52948;SDS011;38812;50.942;3.644;2022-11-15T04:41:02;12.73;;;3.72;;
52948;SDS011;38812;50.942;3.644;2022-11-15T04:43:28;10.32;;;4.10;;
52948;SDS011;38812;50.942;3.644;2022-11-15T04:45:54;13.15;;;3.72;;
52948;SDS011;38812;50.942;3.644;2022-11-15T04:48:19;11.85;;;4.07;;
52948;SDS011;38812;50.942;3.644;2022-11-15T04:50:47;13.30;;;3.95;;
52948;SDS011;38812;50.942;3.644;2022-11-15T04:53:13;10.05;;;4.22;;
52948;SDS011;38812;50.942;3.644;2022-11-15T04:55:38;10.40;;;4.05;;
52948;SDS011;38812;50.942;3.644;2022-11-15T04:58:04;10.85;;;4.47;;
52948;SDS011;38812;50.942;3.644;2022-11-15T05:00:29;12.70;;;4.45;;
52948;SDS011;38812;50.942;3.644;2022-11-15T05:02:55;20.55;;;5.45;;
52948;SDS011;38812;50.942;3.644;2022-11-15T05:05:39;13.10;;;4.43;;
52948;SDS011;38812;50.942;3.644;2022-11-15T05:08:05;14.32;;;5.07;;
52948;SDS011;38812;50.942;3.644;2022-11-15T05:10:30;23.00;;;5.28;;
52948;SDS011;38812;50.942;3.644;2022-11-15T05:12:56;16.48;;;4.75;;
52948;SDS011;38812;50.942;3.644;2022-11-15T05:15:21;13.05;;;4.85;;
52948;SDS011;38812;50.942;3.644;2022-11-15T05:17:46;9.43;;;4.43;;
52948;SDS011;38812;50.942;3.644;2022-11-15T05:20:12;12.40;;;4.10;;
52948;SDS011;38812;50.942;3.644;2022-11-15T05:22:38;12.02;;;3.88;;
52948;SDS011;38812;50.942;3.644;2022-11-15T05:25:03;13.10;;;4.25;;
52948;SDS011;38812;50.942;3.644;2022-11-15T05:27:29;7.00;;;3.22;;
52948;SDS011;38812;50.942;3.644;2022-11-15T05:29:54;14.57;;;3.90;;
52948;SDS011;38812;50.942;3.644;2022-11-15T05:32:20;10.75;;;3.88;;
52948;SDS011;38812;50.942;3.644;2022-11-15T05:34:45;13.43;;;3.75;;
52948;SDS011;38812;50.942;3.644;2022-11-15T05:37:11;14.25;;;4.88;;
52948;SDS011;38812;50.942;3.644;2022-11-15T05:39:37;18.33;;;4.70;;
52948;SDS011;38812;50.942;3.644;2022-11-15T05:42:07;9.00;;;4.60;;
52948;SDS011;38812;50.942;3.644;2022-11-15T05:44:34;16.05;;;5.20;;
52948;SDS011;38812;50.942;3.644;2022-11-15T05:47:03;10.05;;;4.55;;
52948;SDS011;38812;50.942;3.644;2022-11-15T05:49:31;11.25;;;5.10;;
52948;SDS011;38812;50.942;3.644;2022-11-15T05:52:02;13.50;;;5.00;;
52948;SDS011;38812;50.942;3.644;2022-11-15T05:54:29;12.55;;;4.88;;
52948;SDS011;38812;50.942;3.644;2022-11-15T05:56:57;10.57;;;4.78;;
52948;SDS011;38812;50.942;3.644;2022-11-15T05:59:22;10.02;;;4.35;;
52948;SDS011;38812;50.942;3.644;2022-11-15T06:01:48;13.25;;;4.88;;
52948;SDS011;38812;50.942;3.644;2022-11-15T06:04:13;9.43;;;4.30;;
52948;SDS011;38812;50.942;3.644;2022-11-15T06:06:39;8.98;;;5.28;;
52948;SDS011;38812;50.942;3.644;2022-11-15T06:09:04;13.95;;;5.60;;
52948;SDS011;38812;50.942;3.644;2022-11-15T06:11:30;16.92;;;5.05;;
52948;SDS011;38812;50.942;3.644;2022-11-15T06:13:55;9.45;;;4.57;;
52948;SDS011;38812;50.942;3.644;2022-11-15T06:16:21;8.57;;;5.10;;
52948;SDS011;38812;50.942;3.644;2022-11-15T06:18:46;11.45;;;5.05;;
52948;SDS011;38812;50.942;3.644;2022-11-15T06:21:12;16.98;;;5.65;;
52948;SDS011;38812;50.942;3.644;2022-11-15T06:23:37;8.02;;;5.43;;
52948;SDS011;38812;50.942;3.644;2022-11-15T06:26:02;13.93;;;5.82;;
52948;SDS011;38812;50.942;3.644;2022-11-15T06:28:31;9.80;;;5.47;;
52948;SDS011;38812;50.942;3.644;2022-11-15T06:31:07;8.23;;;5.40;;
52948;SDS011;38812;50.942;3.644;2022-11-15T06:33:35;13.75;;;5.55;;
52948;SDS011;38812;50.942;3.644;2022-11-15T06:36:05;10.30;;;5.95;;
52948;SDS011;38812;50.942;3.644;2022-11-15T06:38:32;12.55;;;6.18;;
52948;SDS011;38812;50.942;3.644;2022-11-15T06:41:02;13.93;;;6.00;;
52948;SDS011;38812;50.942;3.644;2022-11-15T06:43:28;14.40;;;5.47;;
52948;SDS011;38812;50.942;3.644;2022-11-15T06:45:54;9.95;;;5.95;;
52948;SDS011;38812;50.942;3.644;2022-11-15T06:48:19;15.82;;;5.97;;
52948;SDS011;38812;50.942;3.644;2022-11-15T06:50:50;11.73;;;5.82;;
52948;SDS011;38812;50.942;3.644;2022-11-15T06:53:16;10.02;;;6.35;;
52948;SDS011;38812;50.942;3.644;2022-11-15T06:55:42;12.30;;;6.28;;
52948;SDS011;38812;50.942;3.644;2022-11-15T06:58:07;13.40;;;6.07;;
52948;SDS011;38812;50.942;3.644;2022-11-15T07:00:33;9.05;;;6.07;;
52948;SDS011;38812;50.942;3.644;2022-11-15T07:03:01;7.45;;;5.13;;
52948;SDS011;38812;50.942;3.644;2022-11-15T07:05:27;10.23;;;5.53;;
52948;SDS011;38812;50.942;3.644;2022-11-15T07:07:53;9.32;;;5.30;;
52948;SDS011;38812;50.942;3.644;2022-11-15T07:10:20;12.27;;;5.60;;
52948;SDS011;38812;50.942;3.644;2022-11-15T07:12:47;13.80;;;6.00;;
52948;SDS011;38812;50.942;3.644;2022-11-15T07:15:14;14.00;;;5.65;;
52948;SDS011;38812;50.942;3.644;2022-11-15T07:17:40;7.93;;;4.55;;
52948;SDS011;38812;50.942;3.644;2022-11-15T07:20:05;14.75;;;5.05;;
52948;SDS011;38812;50.942;3.644;2022-11-15T07:22:31;9.68;;;5.22;;
52948;SDS011;38812;50.942;3.644;2022-11-15T07:24:56;8.88;;;5.47;;
52948;SDS011;38812;50.942;3.644;2022-11-15T07:27:22;11.50;;;5.70;;
52948;SDS011;38812;50.942;3.644;2022-11-15T07:29:47;11.60;;;5.40;;
52948;SDS011;38812;50.942;3.644;2022-11-15T07:32:12;11.73;;;4.88;;
52948;SDS011;38812;50.942;3.644;2022-11-15T07:34:38;10.48;;;5.40;;
52948;SDS011;38812;50.942;3.644;2022-11-15T07:37:03;5.47;;;4.28;;
52948;SDS011;38812;50.942;3.644;2022-11-15T07:39:29;8.65;;;4.18;;
52948;SDS011;38812;50.942;3.644;2022-11-15T07:41:54;11.48;;;4.75;;
52948;SDS011;38812;50.942;3.644;2022-11-15T07:44:39;6.40;;;3.35;;
52948;SDS011;38812;50.942;3.644;2022-11-15T07:47:05;9.70;;;4.05;;
52948;SDS011;38812;50.942;3.644;2022-11-15T07:49:30;4.43;;;3.28;;
52948;SDS011;38812;50.942;3.644;2022-11-15T07:51:55;8.73;;;3.92;;
52948;SDS011;38812;50.942;3.644;2022-11-15T07:54:21;8.75;;;3.45;;
52948;SDS011;38812;50.942;3.644;2022-11-15T07:56:46;8.18;;;3.47;;
52948;SDS011;38812;50.942;3.644;2022-11-15T07:59:11;4.53;;;2.75;;
52948;SDS011;38812;50.942;3.644;2022-11-15T08:01:37;8.23;;;3.03;;
52948;SDS011;38812;50.942;3.644;2022-11-15T08:04:02;10.63;;;4.47;;
52948;SDS011;38812;50.942;3.644;2022-11-15T08:06:27;6.75;;;3.30;;
52948;SDS011;38812;50.942;3.644;2022-11-15T08:08:53;6.57;;;3.13;;
52948;SDS011;38812;50.942;3.644;2022-11-15T08:11:18;12.55;;;2.85;;
52948;SDS011;38812;50.942;3.644;2022-11-15T08:13:44;10.48;;;3.33;;
52948;SDS011;38812;50.942;3.644;2022-11-15T08:16:09;11.02;;;2.38;;
52948;SDS011;38812;50.942;3.644;2022-11-15T08:18:36;11.95;;;5.53;;
52948;SDS011;38812;50.942;3.644;2022-11-15T08:21:02;6.72;;;3.10;;
52948;SDS011;38812;50.942;3.644;2022-11-15T08:23:28;6.65;;;2.40;;
52948;SDS011;38812;50.942;3.644;2022-11-15T08:26:01;3.13;;;2.45;;
52948;SDS011;38812;50.942;3.644;2022-11-15T08:28:28;7.50;;;2.85;;
52948;SDS011;38812;50.942;3.644;2022-11-15T08:30:54;6.95;;;2.78;;
52948;SDS011;38812;50.942;3.644;2022-11-15T08:33:20;9.57;;;2.30;;
52948;SDS011;38812;50.942;3.644;2022-11-15T08:35:45;12.63;;;1.77;;
52948;SDS011;38812;50.942;3.644;2022-11-15T08:38:11;7.45;;;2.65;;
52948;SDS011;38812;50.942;3.644;2022-11-15T08:40:36;11.20;;;3.13;;
52948;SDS011;38812;50.942;3.644;2022-11-15T08:43:03;12.13;;;2.10;;
52948;SDS011;38812;50.942;3.644;2022-11-15T08:45:29;11.05;;;2.63;;
52948;SDS011;38812;50.942;3.644;2022-11-15T08:47:54;4.25;;;1.90;;
52948;SDS011;38812;50.942;3.644;2022-11-15T08:50:20;2.80;;;1.40;;
52948;SDS011;38812;50.942;3.644;2022-11-15T08:52:46;6.72;;;2.10;;
52948;SDS011;38812;50.942;3.644;2022-11-15T08:55:13;9.48;;;2.30;;
52948;SDS011;38812;50.942;3.644;2022-11-15T08:57:38;8.90;;;2.03;;
52948;SDS011;38812;50.942;3.644;2022-11-15T09:00:04;8.02;;;2.40;;
52948;SDS011;38812;50.942;3.644;2022-11-15T09:02:30;5.82;;;1.65;;
52948;SDS011;38812;50.942;3.644;2022-11-15T09:05:14;14.48;;;2.70;;
52948;SDS011;38812;50.942;3.644;2022-11-15T09:07:58;8.27;;;1.85;;
52948;SDS011;38812;50.942;3.644;2022-11-15T09:10:23;7.07;;;1.90;;
52948;SDS011;38812;50.942;3.644;2022-11-15T09:12:49;6.75;;;2.17;;
52948;SDS011;38812;50.942;3.644;2022-11-15T09:15:15;6.80;;;2.00;;
52948;SDS011;38812;50.942;3.644;2022-11-15T09:17:41;6.70;;;2.08;;
52948;SDS011;38812;50.942;3.644;2022-11-15T09:20:07;8.15;;;2.20;;
52948;SDS011;38812;50.942;3.644;2022-11-15T09:22:33;12.95;;;1.85;;
52948;SDS011;38812;50.942;3.644;2022-11-15T09:24:59;8.85;;;2.22;;
52948;SDS011;38812;50.942;3.644;2022-11-15T09:27:30;8.52;;;1.90;;
52948;SDS011;38812;50.942;3.644;2022-11-15T09:29:56;6.35;;;1.95;;
52948;SDS011;38812;50.942;3.644;2022-11-15T09:32:21;8.55;;;1.83;;
52948;SDS011;38812;50.942;3.644;2022-11-15T09:34:50;6.22;;;1.48;;
52948;SDS011;38812;50.942;3.644;2022-11-15T09:37:15;5.65;;;1.65;;
52948;SDS011;38812;50.942;3.644;2022-11-15T09:39:41;12.32;;;1.60;;
52948;SDS011;38812;50.942;3.644;2022-11-15T09:42:49;25.75;;;2.92;;
52948;SDS011;38812;50.942;3.644;2022-11-15T09:45:02;12.80;;;1.92;;
52948;SDS011;38812;50.942;3.644;2022-11-15T09:47:40;13.23;;;1.60;;
52948;SDS011;38812;50.942;3.644;2022-11-15T09:50:32;3.90;;;1.55;;
52948;SDS011;38812;50.942;3.644;2022-11-15T09:53:01;9.90;;;1.65;;
52948;SDS011;38812;50.942;3.644;2022-11-15T09:55:31;8.07;;;2.13;;
52948;SDS011;38812;50.942;3.644;2022-11-15T09:58:26;8.25;;;1.98;;
52948;SDS011;38812;50.942;3.644;2022-11-15T10:00:53;9.52;;;2.88;;
52948;SDS011;38812;50.942;3.644;2022-11-15T10:03:40;5.50;;;1.80;;
52948;SDS011;38812;50.942;3.644;2022-11-15T10:06:08;9.95;;;2.03;;
52948;SDS011;38812;50.942;3.644;2022-11-15T10:11:27;5.57;;;1.80;;
52948;SDS011;38812;50.942;3.644;2022-11-15T10:13:56;4.80;;;1.35;;
52948;SDS011;38812;50.942;3.644;2022-11-15T10:21:54;7.25;;;1.50;;
52948;SDS011;38812;50.942;3.644;2022-11-15T10:24:37;9.93;;;1.83;;
52948;SDS011;38812;50.942;3.644;2022-11-15T10:27:07;11.52;;;2.17;;
52948;SDS011;38812;50.942;3.644;2022-11-15T10:29:40;8.65;;;3.05;;
52948;SDS011;38812;50.942;3.644;2022-11-15T10:32:10;7.35;;;1.55;;
52948;SDS011;38812;50.942;3.644;2022-11-15T10:34:36;9.23;;;1.70;;
52948;SDS011;38812;50.942;3.644;2022-11-15T10:37:02;11.20;;;1.60;;
52948;SDS011;38812;50.942;3.644;2022-11-15T10:39:27;9.43;;;1.90;;
52948;SDS011;38812;50.942;3.644;2022-11-15T10:41:53;9.93;;;1.85;;
52948;SDS011;38812;50.942;3.644;2022-11-15T10:44:23;13.35;;;2.33;;
52948;SDS011;38812;50.942;3.644;2022-11-15T10:49:25;10.05;;;1.73;;
52948;SDS011;38812;50.942;3.644;2022-11-15T10:52:02;7.03;;;1.65;;
52948;SDS011;38812;50.942;3.644;2022-11-15T10:54:40;7.45;;;1.40;;
52948;SDS011;38812;50.942;3.644;2022-11-15T10:57:11;11.52;;;2.95;;
52948;SDS011;38812;50.942;3.644;2022-11-15T10:59:40;12.85;;;1.70;;
52948;SDS011;38812;50.942;3.644;2022-11-15T11:04:54;5.90;;;1.80;;
52948;SDS011;38812;50.942;3.644;2022-11-15T11:07:21;4.18;;;1.38;;
52948;SDS011;38812;50.942;3.644;2022-11-15T11:09:56;12.65;;;1.63;;
52948;SDS011;38812;50.942;3.644;2022-11-15T11:12:34;9.32;;;1.52;;
52948;SDS011;38812;50.942;3.644;2022-11-15T11:15:00;6.50;;;1.73;;
52948;SDS011;38812;50.942;3.644;2022-11-15T11:17:48;8.23;;;1.42;;
52948;SDS011;38812;50.942;3.644;2022-11-15T11:20:30;4.40;;;1.30;;
52948;SDS011;38812;50.942;3.644;2022-11-15T11:48:23;9.68;;;1.70;;
52948;SDS011;38812;50.942;3.644;2022-11-15T11:51:02;7.15;;;1.58;;
52948;SDS011;38812;50.942;3.644;2022-11-15T11:53:39;16.10;;;1.73;;
52948;SDS011;38812;50.942;3.644;2022-11-15T11:56:24;10.43;;;1.98;;
52948;SDS011;38812;50.942;3.644;2022-11-15T11:58:53;5.15;;;1.25;;
52948;SDS011;38812;50.942;3.644;2022-11-15T12:01:41;4.88;;;1.13;;
52948;SDS011;38812;50.942;3.644;2022-11-15T12:04:10;5.45;;;1.25;;
52948;SDS011;38812;50.942;3.644;2022-11-15T12:06:42;8.57;;;1.58;;
52948;SDS011;38812;50.942;3.644;2022-11-15T12:09:32;4.93;;;1.33;;
52948;SDS011;38812;50.942;3.644;2022-11-15T12:14:43;5.03;;;1.38;;
52948;SDS011;38812;50.942;3.644;2022-11-15T12:17:13;8.23;;;1.40;;
52948;SDS011;38812;50.942;3.644;2022-11-15T12:19:43;10.93;;;1.75;;
52948;SDS011;38812;50.942;3.644;2022-11-15T12:22:21;6.07;;;1.65;;
52948;SDS011;38812;50.942;3.644;2022-11-15T12:24:59;3.08;;;1.02;;
52948;SDS011;38812;50.942;3.644;2022-11-15T12:27:35;6.35;;;1.23;;
52948;SDS011;38812;50.942;3.644;2022-11-15T12:30:23;8.30;;;1.48;;
52948;SDS011;38812;50.942;3.644;2022-11-15T12:32:55;3.40;;;1.17;;
52948;SDS011;38812;50.942;3.644;2022-11-15T12:35:27;5.93;;;1.40;;
52948;SDS011;38812;50.942;3.644;2022-11-15T12:37:58;5.10;;;1.67;;
52948;SDS011;38812;50.942;3.644;2022-11-15T12:40:33;10.57;;;1.40;;
52948;SDS011;38812;50.942;3.644;2022-11-15T12:45:29;7.72;;;1.33;;
52948;SDS011;38812;50.942;3.644;2022-11-15T12:50:53;9.95;;;1.58;;
52948;SDS011;38812;50.942;3.644;2022-11-15T12:58:27;5.32;;;1.33;;
52948;SDS011;38812;50.942;3.644;2022-11-15T13:01:08;5.65;;;1.42;;
52948;SDS011;38812;50.942;3.644;2022-11-15T13:03:35;1.67;;;0.90;;
52948;SDS011;38812;50.942;3.644;2022-11-15T13:06:02;3.50;;;0.98;;
52948;SDS011;38812;50.942;3.644;2022-11-15T13:08:37;6.38;;;1.52;;
52948;SDS011;38812;50.942;3.644;2022-11-15T13:14:37;6.78;;;1.15;;
52948;SDS011;38812;50.942;3.644;2022-11-15T13:28:01;5.85;;;1.15;;
52948;SDS011;38812;50.942;3.644;2022-11-15T13:36:22;6.38;;;1.48;;
52948;SDS011;38812;50.942;3.644;2022-11-15T13:38:56;6.38;;;1.88;;
52948;SDS011;38812;50.942;3.644;2022-11-15T13:41:25;3.67;;;1.15;;
52948;SDS011;38812;50.942;3.644;2022-11-15T13:43:53;3.15;;;1.30;;
52948;SDS011;38812;50.942;3.644;2022-11-15T13:46:32;4.00;;;1.42;;
52948;SDS011;38812;50.942;3.644;2022-11-15T13:49:00;8.00;;;1.23;;
52948;SDS011;38812;50.942;3.644;2022-11-15T13:54:09;2.75;;;1.63;;
52948;SDS011;38812;50.942;3.644;2022-11-15T13:56:38;1.88;;;1.33;;
52948;SDS011;38812;50.942;3.644;2022-11-15T13:59:14;5.07;;;1.50;;
52948;SDS011;38812;50.942;3.644;2022-11-15T14:01:47;7.25;;;1.50;;
52948;SDS011;38812;50.942;3.644;2022-11-15T14:04:14;7.30;;;1.58;;
52948;SDS011;38812;50.942;3.644;2022-11-15T14:06:46;4.40;;;1.70;;
52948;SDS011;38812;50.942;3.644;2022-11-15T14:09:30;3.42;;;1.58;;
52948;SDS011;38812;50.942;3.644;2022-11-15T14:11:58;2.83;;;1.27;;
52948;SDS011;38812;50.942;3.644;2022-11-15T14:14:25;2.67;;;1.52;;
52948;SDS011;38812;50.942;3.644;2022-11-15T14:16:54;5.53;;;1.58;;
52948;SDS011;38812;50.942;3.644;2022-11-15T14:24:37;6.45;;;1.55;;
52948;SDS011;38812;50.942;3.644;2022-11-15T14:29:49;5.35;;;1.40;;
52948;SDS011;38812;50.942;3.644;2022-11-15T14:32:16;6.72;;;2.40;;
52948;SDS011;38812;50.942;3.644;2022-11-15T14:35:10;10.32;;;2.20;;
52948;SDS011;38812;50.942;3.644;2022-11-15T14:37:39;6.88;;;2.42;;
52948;SDS011;38812;50.942;3.644;2022-11-15T14:40:05;8.35;;;2.25;;
52948;SDS011;38812;50.942;3.644;2022-11-15T14:42:31;5.93;;;1.90;;
52948;SDS011;38812;50.942;3.644;2022-11-15T14:44:57;4.93;;;1.90;;
52948;SDS011;38812;50.942;3.644;2022-11-15T14:47:22;6.70;;;1.98;;
52948;SDS011;38812;50.942;3.644;2022-11-15T14:49:48;6.22;;;2.72;;
52948;SDS011;38812;50.942;3.644;2022-11-15T14:52:29;7.85;;;2.45;;
52948;SDS011;38812;50.942;3.644;2022-11-15T14:55:00;6.40;;;2.33;;
52948;SDS011;38812;50.942;3.644;2022-11-15T14:57:28;5.45;;;2.53;;
52948;SDS011;38812;50.942;3.644;2022-11-15T14:59:54;4.53;;;2.50;;
52948;SDS011;38812;50.942;3.644;2022-11-15T15:02:21;6.95;;;2.90;;
52948;SDS011;38812;50.942;3.644;2022-11-15T15:04:51;6.80;;;2.83;;
52948;SDS011;38812;50.942;3.644;2022-11-15T15:07:17;6.88;;;3.03;;
52948;SDS011;38812;50.942;3.644;2022-11-15T15:09:43;5.63;;;3.00;;
52948;SDS011;38812;50.942;3.644;2022-11-15T15:12:19;5.57;;;2.97;;
52948;SDS011;38812;50.942;3.644;2022-11-15T15:14:46;5.20;;;2.85;;
52948;SDS011;38812;50.942;3.644;2022-11-15T15:17:13;8.15;;;3.40;;
52948;SDS011;38812;50.942;3.644;2022-11-15T15:19:39;5.43;;;3.30;;
52948;SDS011;38812;50.942;3.644;2022-11-15T15:22:04;4.13;;;3.00;;
52948;SDS011;38812;50.942;3.644;2022-11-15T15:24:30;8.88;;;3.33;;
52948;SDS011;38812;50.942;3.644;2022-11-15T15:26:56;5.25;;;3.10;;
52948;SDS011;38812;50.942;3.644;2022-11-15T15:29:21;5.90;;;3.65;;
52948;SDS011;38812;50.942;3.644;2022-11-15T15:31:46;5.43;;;3.03;;
52948;SDS011;38812;50.942;3.644;2022-11-15T15:34:12;5.68;;;3.53;;
52948;SDS011;38812;50.942;3.644;2022-11-15T15:36:37;6.63;;;3.47;;
52948;SDS011;38812;50.942;3.644;2022-11-15T15:39:03;5.85;;;3.13;;
52948;SDS011;38812;50.942;3.644;2022-11-15T15:41:28;5.38;;;3.20;;
52948;SDS011;38812;50.942;3.644;2022-11-15T15:43:53;7.78;;;3.58;;
52948;SDS011;38812;50.942;3.644;2022-11-15T15:46:19;6.95;;;3.33;;
52948;SDS011;38812;50.942;3.644;2022-11-15T15:48:45;7.28;;;3.92;;
52948;SDS011;38812;50.942;3.644;2022-11-15T15:51:11;5.05;;;3.80;;
52948;SDS011;38812;50.942;3.644;2022-11-15T15:53:37;10.85;;;3.80;;
52948;SDS011;38812;50.942;3.644;2022-11-15T15:56:03;5.90;;;2.95;;
52948;SDS011;38812;50.942;3.644;2022-11-15T15:58:29;5.00;;;3.42;;
52948;SDS011;38812;50.942;3.644;2022-11-15T16:00:54;5.95;;;2.95;;
52948;SDS011;38812;50.942;3.644;2022-11-15T16:03:19;5.40;;;3.17;;
52948;SDS011;38812;50.942;3.644;2022-11-15T16:08:20;5.00;;;3.17;;
52948;SDS011;38812;50.942;3.644;2022-11-15T16:10:48;3.22;;;2.47;;
52948;SDS011;38812;50.942;3.644;2022-11-15T16:13:13;5.18;;;2.90;;
52948;SDS011;38812;50.942;3.644;2022-11-15T16:15:39;4.75;;;2.53;;
52948;SDS011;38812;50.942;3.644;2022-11-15T16:18:04;4.65;;;2.45;;
52948;SDS011;38812;50.942;3.644;2022-11-15T16:20:39;2.38;;;2.08;;
52948;SDS011;38812;50.942;3.644;2022-11-15T16:23:08;4.28;;;2.60;;
52948;SDS011;38812;50.942;3.644;2022-11-15T16:28:29;8.57;;;3.40;;
52948;SDS011;38812;50.942;3.644;2022-11-15T16:31:03;3.95;;;2.33;;
52948;SDS011;38812;50.942;3.644;2022-11-15T16:33:30;5.35;;;2.67;;
52948;SDS011;38812;50.942;3.644;2022-11-15T16:35:56;4.35;;;2.60;;
52948;SDS011;38812;50.942;3.644;2022-11-15T16:38:21;4.78;;;2.83;;
52948;SDS011;38812;50.942;3.644;2022-11-15T16:40:47;4.35;;;2.75;;
52948;SDS011;38812;50.942;3.644;2022-11-15T16:43:12;4.68;;;3.22;;
52948;SDS011;38812;50.942;3.644;2022-11-15T16:45:38;6.57;;;3.08;;
52948;SDS011;38812;50.942;3.644;2022-11-15T16:48:03;4.13;;;2.85;;
52948;SDS011;38812;50.942;3.644;2022-11-15T16:50:30;4.15;;;2.78;;
52948;SDS011;38812;50.942;3.644;2022-11-15T16:52:59;3.50;;;2.53;;
52948;SDS011;38812;50.942;3.644;2022-11-15T16:55:26;3.70;;;2.50;;
52948;SDS011;38812;50.942;3.644;2022-11-15T16:57:53;3.13;;;2.38;;
52948;SDS011;38812;50.942;3.644;2022-11-15T17:00:19;3.55;;;2.42;;
52948;SDS011;38812;50.942;3.644;2022-11-15T17:02:46;5.95;;;1.98;;
52948;SDS011;38812;50.942;3.644;2022-11-15T17:05:12;4.88;;;2.80;;
52948;SDS011;38812;50.942;3.644;2022-11-15T17:07:39;2.92;;;2.60;;
52948;SDS011;38812;50.942;3.644;2022-11-15T17:10:05;4.55;;;2.28;;
52948;SDS011;38812;50.942;3.644;2022-11-15T17:12:32;2.83;;;2.50;;
52948;SDS011;38812;50.942;3.644;2022-11-15T17:14:58;6.28;;;2.60;;
52948;SDS011;38812;50.942;3.644;2022-11-15T17:17:24;4.85;;;3.00;;
52948;SDS011;38812;50.942;3.644;2022-11-15T17:19:50;3.42;;;2.63;;
52948;SDS011;38812;50.942;3.644;2022-11-15T17:22:17;4.75;;;3.45;;
52948;SDS011;38812;50.942;3.644;2022-11-15T17:24:42;4.15;;;2.97;;
52948;SDS011;38812;50.942;3.644;2022-11-15T17:27:07;6.07;;;3.22;;
52948;SDS011;38812;50.942;3.644;2022-11-15T17:29:33;4.82;;;2.78;;
52948;SDS011;38812;50.942;3.644;2022-11-15T17:31:58;4.40;;;3.00;;
52948;SDS011;38812;50.942;3.644;2022-11-15T17:34:23;8.25;;;3.00;;
52948;SDS011;38812;50.942;3.644;2022-11-15T17:36:49;6.57;;;3.65;;
52948;SDS011;38812;50.942;3.644;2022-11-15T17:39:14;3.67;;;3.08;;
52948;SDS011;38812;50.942;3.644;2022-11-15T17:41:40;5.78;;;2.65;;
52948;SDS011;38812;50.942;3.644;2022-11-15T17:44:05;4.45;;;3.30;;
52948;SDS011;38812;50.942;3.644;2022-11-15T17:46:31;5.00;;;3.33;;
52948;SDS011;38812;50.942;3.644;2022-11-15T17:48:58;5.45;;;3.83;;
52948;SDS011;38812;50.942;3.644;2022-11-15T17:51:23;4.10;;;3.38;;
52948;SDS011;38812;50.942;3.644;2022-11-15T17:53:48;9.13;;;3.47;;
52948;SDS011;38812;50.942;3.644;2022-11-15T17:56:16;8.30;;;3.58;;
52948;SDS011;38812;50.942;3.644;2022-11-15T17:59:01;4.70;;;3.42;;
52948;SDS011;38812;50.942;3.644;2022-11-15T18:01:30;5.45;;;3.38;;
52948;SDS011;38812;50.942;3.644;2022-11-15T18:03:57;3.58;;;2.90;;
52948;SDS011;38812;50.942;3.644;2022-11-15T18:06:24;4.35;;;3.30;;
52948;SDS011;38812;50.942;3.644;2022-11-15T18:08:51;7.85;;;4.00;;
52948;SDS011;38812;50.942;3.644;2022-11-15T18:11:23;6.03;;;3.88;;
52948;SDS011;38812;50.942;3.644;2022-11-15T18:13:51;7.20;;;3.85;;
52948;SDS011;38812;50.942;3.644;2022-11-15T18:16:20;5.47;;;3.25;;
52948;SDS011;38812;50.942;3.644;2022-11-15T18:18:48;7.70;;;3.20;;
52948;SDS011;38812;50.942;3.644;2022-11-15T18:21:20;5.38;;;3.70;;
52948;SDS011;38812;50.942;3.644;2022-11-15T18:23:48;4.47;;;3.35;;
52948;SDS011;38812;50.942;3.644;2022-11-15T18:26:16;6.15;;;3.70;;
52948;SDS011;38812;50.942;3.644;2022-11-15T18:28:43;7.97;;;3.88;;
52948;SDS011;38812;50.942;3.644;2022-11-15T18:31:14;3.75;;;3.35;;
52948;SDS011;38812;50.942;3.644;2022-11-15T18:33:41;5.63;;;3.22;;
52948;SDS011;38812;50.942;3.644;2022-11-15T18:36:08;7.15;;;3.70;;
52948;SDS011;38812;50.942;3.644;2022-11-15T18:38:35;7.07;;;3.20;;
52948;SDS011;38812;50.942;3.644;2022-11-15T18:41:08;3.45;;;3.08;;
52948;SDS011;38812;50.942;3.644;2022-11-15T18:43:38;3.80;;;3.42;;
52948;SDS011;38812;50.942;3.644;2022-11-15T18:46:05;6.20;;;3.80;;
52948;SDS011;38812;50.942;3.644;2022-11-15T18:48:33;7.05;;;3.83;;
52948;SDS011;38812;50.942;3.644;2022-11-15T18:53:33;4.82;;;3.33;;
52948;SDS011;38812;50.942;3.644;2022-11-15T18:56:09;4.75;;;3.03;;
52948;SDS011;38812;50.942;3.644;2022-11-15T18:58:40;4.43;;;3.42;;
52948;SDS011;38812;50.942;3.644;2022-11-15T19:01:11;4.60;;;3.65;;
52948;SDS011;38812;50.942;3.644;2022-11-15T19:03:39;4.60;;;3.78;;
52948;SDS011;38812;50.942;3.644;2022-11-15T19:06:06;6.03;;;3.60;;
52948;SDS011;38812;50.942;3.644;2022-11-15T19:08:32;4.30;;;3.20;;
52948;SDS011;38812;50.942;3.644;2022-11-15T19:11:11;9.10;;;3.47;;
52948;SDS011;38812;50.942;3.644;2022-11-15T19:13:41;6.80;;;3.95;;
52948;SDS011;38812;50.942;3.644;2022-11-15T19:16:08;5.30;;;3.80;;
52948;SDS011;38812;50.942;3.644;2022-11-15T19:18:35;6.28;;;3.25;;
52948;SDS011;38812;50.942;3.644;2022-11-15T19:21:01;4.85;;;3.28;;
52948;SDS011;38812;50.942;3.644;2022-11-15T19:23:28;3.83;;;2.90;;
52948;SDS011;38812;50.942;3.644;2022-11-15T19:25:58;9.07;;;3.65;;
52948;SDS011;38812;50.942;3.644;2022-11-15T19:28:24;4.47;;;3.60;;
52948;SDS011;38812;50.942;3.644;2022-11-15T19:30:51;6.70;;;3.63;;
52948;SDS011;38812;50.942;3.644;2022-11-15T19:33:17;4.72;;;3.65;;
52948;SDS011;38812;50.942;3.644;2022-11-15T19:35:43;7.20;;;3.80;;
52948;SDS011;38812;50.942;3.644;2022-11-15T19:38:09;6.05;;;3.78;;
52948;SDS011;38812;50.942;3.644;2022-11-15T19:40:34;4.30;;;3.53;;
52948;SDS011;38812;50.942;3.644;2022-11-15T19:43:00;5.18;;;3.80;;
52948;SDS011;38812;50.942;3.644;2022-11-15T19:45:26;5.93;;;3.60;;
52948;SDS011;38812;50.942;3.644;2022-11-15T19:47:51;6.38;;;4.00;;
52948;SDS011;38812;50.942;3.644;2022-11-15T19:50:17;4.38;;;3.80;;
52948;SDS011;38812;50.942;3.644;2022-11-15T19:52:42;6.10;;;3.60;;
52948;SDS011;38812;50.942;3.644;2022-11-15T19:55:08;5.82;;;3.83;;
52948;SDS011;38812;50.942;3.644;2022-11-15T19:57:33;6.03;;;3.70;;
52948;SDS011;38812;50.942;3.644;2022-11-15T19:59:59;5.10;;;4.07;;
52948;SDS011;38812;50.942;3.644;2022-11-15T20:02:24;5.28;;;4.20;;
52948;SDS011;38812;50.942;3.644;2022-11-15T20:04:50;5.95;;;4.07;;
52948;SDS011;38812;50.942;3.644;2022-11-15T20:07:15;4.90;;;3.47;;
52948;SDS011;38812;50.942;3.644;2022-11-15T20:09:40;6.18;;;3.72;;
52948;SDS011;38812;50.942;3.644;2022-11-15T20:12:06;3.60;;;3.30;;
52948;SDS011;38812;50.942;3.644;2022-11-15T20:14:31;6.97;;;4.30;;
52948;SDS011;38812;50.942;3.644;2022-11-15T20:16:56;5.78;;;4.35;;
52948;SDS011;38812;50.942;3.644;2022-11-15T20:19:22;6.70;;;3.72;;
52948;SDS011;38812;50.942;3.644;2022-11-15T20:21:47;5.53;;;3.88;;
52948;SDS011;38812;50.942;3.644;2022-11-15T20:24:13;9.90;;;3.80;;
52948;SDS011;38812;50.942;3.644;2022-11-15T20:26:39;7.18;;;4.65;;
52948;SDS011;38812;50.942;3.644;2022-11-15T20:29:05;4.65;;;3.60;;
52948;SDS011;38812;50.942;3.644;2022-11-15T20:31:31;6.32;;;4.15;;
52948;SDS011;38812;50.942;3.644;2022-11-15T20:33:57;11.20;;;3.97;;
52948;SDS011;38812;50.942;3.644;2022-11-15T20:36:22;6.95;;;5.10;;
52948;SDS011;38812;50.942;3.644;2022-11-15T20:38:48;5.78;;;4.40;;
52948;SDS011;38812;50.942;3.644;2022-11-15T20:41:13;8.18;;;5.07;;
52948;SDS011;38812;50.942;3.644;2022-11-15T20:43:39;7.13;;;4.88;;
52948;SDS011;38812;50.942;3.644;2022-11-15T20:46:07;8.07;;;4.85;;
52948;SDS011;38812;50.942;3.644;2022-11-15T20:48:33;7.32;;;4.10;;
52948;SDS011;38812;50.942;3.644;2022-11-15T20:51:06;4.63;;;3.65;;
52948;SDS011;38812;50.942;3.644;2022-11-15T20:53:36;4.30;;;3.65;;
52948;SDS011;38812;50.942;3.644;2022-11-15T20:56:06;4.03;;;3.33;;